Time;durP1;ratioP1;P1;durP2;ratioP2;P2;SDS_P1;SDS_P2;PMS_P1;PMS_P2;Temp;Humidity;BMP_temperature;BMP_pressure;BME280_temperature;BME280_humidity;BME280_pressure;Samples;Min_cycle;Max_cycle;Signal;HPM_P1;HPM_P2
2022/06/28 00:02:08;;;;;;;18.08;11.63;;;14.30;99.90;;;;;;5029499;28;20071;-59
2022/06/28 00:04:34;;;;;;;17.85;11.80;;;14.20;99.90;;;;;;5016402;28;20479;-59
2022/06/28 00:07:00;;;;;;;15.00;11.10;;;14.20;99.90;;;;;;5013729;28;20088;-59
2022/06/28 00:09:26;;;;;;;15.18;11.20;;;14.20;99.90;;;;;;5012437;28;20046;-59
2022/06/28 00:11:52;;;;;;;14.98;10.82;;;14.20;99.90;;;;;;5012975;28;20045;-60
2022/06/28 00:17:03;;;;;;;14.73;11.18;;;14.10;99.90;;;;;;5014674;28;20044;-59
2022/06/28 00:19:29;;;;;;;15.75;11.05;;;14.00;99.90;;;;;;5014105;28;20515;-60
2022/06/28 00:21:55;;;;;;;13.40;10.40;;;14.00;99.90;;;;;;5019633;28;20046;-59
2022/06/28 00:24:22;;;;;;;12.75;10.32;;;13.90;99.90;;;;;;5010467;28;20041;-60
2022/06/28 00:26:48;;;;;;;15.02;10.50;;;14.00;99.90;;;;;;5008665;28;20045;-59
2022/06/28 00:29:15;;;;;;;12.77;10.40;;;13.90;99.90;;;;;;5014472;28;20058;-59
2022/06/28 00:31:41;;;;;;;14.10;10.73;;;13.80;99.90;;;;;;5021491;28;20050;-59
2022/06/28 00:34:07;;;;;;;15.90;10.75;;;13.80;99.90;;;;;;5015843;28;20076;-60
2022/06/28 00:36:33;;;;;;;15.95;11.00;;;13.80;99.90;;;;;;5019176;28;20487;-60
2022/06/28 00:39:00;;;;;;;15.73;11.13;;;13.80;99.90;;;;;;5014214;28;20163;-59
2022/06/28 00:41:26;;;;;;;15.70;10.57;;;13.80;99.90;;;;;;5018907;28;20077;-58
2022/06/28 00:43:53;;;;;;;17.52;10.02;;;13.80;99.90;;;;;;5011128;28;20045;-59
2022/06/28 00:46:20;;;;;;;13.95;10.85;;;13.70;99.90;;;;;;5012570;28;20053;-60
2022/06/28 00:48:46;;;;;;;14.10;10.45;;;13.70;99.90;;;;;;5015319;28;20048;-59
2022/06/28 00:51:12;;;;;;;15.23;10.90;;;13.70;99.90;;;;;;4998140;28;20110;-59
2022/06/28 00:53:38;;;;;;;14.57;10.23;;;13.70;99.90;;;;;;5009201;28;20056;-59
2022/06/28 00:56:04;;;;;;;14.52;10.85;;;13.60;99.90;;;;;;5015484;28;20049;-60
2022/06/28 00:58:30;;;;;;;19.08;10.65;;;13.60;99.90;;;;;;5014331;28;20053;-60
2022/06/28 01:00:56;;;;;;;15.10;10.68;;;13.60;99.90;;;;;;5003402;28;20033;-59
2022/06/28 01:03:23;;;;;;;14.90;10.90;;;13.50;99.90;;;;;;5014071;28;20049;-60
2022/06/28 01:05:51;;;;;;;14.18;10.65;;;13.50;99.90;;;;;;5026718;28;20051;-60
2022/06/28 01:08:18;;;;;;;14.68;10.70;;;13.50;99.90;;;;;;5013748;28;20053;-60
2022/06/28 01:10:45;;;;;;;15.40;11.63;;;13.50;99.90;;;;;;5021584;28;20147;-59
2022/06/28 01:13:12;;;;;;;14.50;11.02;;;13.50;99.90;;;;;;5012651;28;20080;-59
2022/06/28 01:15:40;;;;;;;19.15;11.70;;;13.50;99.90;;;;;;5010454;28;20049;-60
2022/06/28 01:18:07;;;;;;;14.25;10.93;;;13.50;99.90;;;;;;5011568;28;20125;-59
2022/06/28 01:20:33;;;;;;;15.73;10.88;;;13.50;99.90;;;;;;5017634;28;20483;-59
2022/06/28 01:23:00;;;;;;;17.42;11.25;;;13.50;99.90;;;;;;5004160;28;20045;-59
2022/06/28 01:25:26;;;;;;;14.77;11.90;;;13.50;99.90;;;;;;5000938;28;20102;-60
2022/06/28 01:27:53;;;;;;;18.10;11.13;;;13.50;99.90;;;;;;5014772;28;20057;-60
2022/06/28 01:30:19;;;;;;;17.08;11.90;;;13.50;99.90;;;;;;5001005;28;20136;-58
2022/06/28 01:32:46;;;;;;;13.02;10.90;;;13.50;99.90;;;;;;5008084;28;20617;-59
2022/06/28 01:35:12;;;;;;;12.48;10.32;;;13.40;99.90;;;;;;5014099;28;20046;-59
2022/06/28 01:37:38;;;;;;;13.35;10.32;;;13.40;99.90;;;;;;5011454;28;20522;-59
2022/06/28 01:40:05;;;;;;;14.43;10.52;;;13.40;99.90;;;;;;5016206;28;20392;-60
2022/06/28 01:42:31;;;;;;;15.20;10.40;;;13.40;99.90;;;;;;5017817;28;20075;-59
2022/06/28 01:44:58;;;;;;;15.25;10.55;;;13.40;99.90;;;;;;5006032;28;20053;-58
2022/06/28 01:47:26;;;;;;;19.33;10.57;;;13.40;99.90;;;;;;5011559;28;20041;-60
2022/06/28 01:49:53;;;;;;;13.05;9.55;;;13.40;99.90;;;;;;5018640;28;20124;-59
2022/06/28 01:52:19;;;;;;;14.82;9.60;;;13.40;99.90;;;;;;5017914;28;20049;-60
2022/06/28 01:54:45;;;;;;;17.10;10.05;;;13.40;99.90;;;;;;5009529;28;20436;-58
2022/06/28 01:57:11;;;;;;;13.07;9.63;;;13.30;99.90;;;;;;5010432;28;20103;-58
2022/06/28 01:59:38;;;;;;;13.70;9.30;;;13.40;99.90;;;;;;5013122;28;20054;-60
2022/06/28 02:02:04;;;;;;;14.70;9.27;;;13.30;99.90;;;;;;5010555;28;20053;-59
2022/06/28 02:04:30;;;;;;;11.25;9.13;;;13.30;99.90;;;;;;4990454;28;20684;-58
2022/06/28 02:06:57;;;;;;;11.95;8.52;;;13.30;99.90;;;;;;5018204;28;20046;-58
2022/06/28 02:09:23;;;;;;;12.75;9.13;;;13.20;99.90;;;;;;5012330;28;20518;-60
2022/06/28 02:11:49;;;;;;;12.73;9.23;;;13.20;99.90;;;;;;5017684;28;20062;-59
2022/06/28 02:14:15;;;;;;;12.10;9.00;;;13.10;99.90;;;;;;5016524;28;20049;-60
2022/06/28 02:16:42;;;;;;;13.80;9.38;;;13.10;99.90;;;;;;5015274;28;20054;-58
2022/06/28 02:19:08;;;;;;;12.55;9.90;;;13.10;99.90;;;;;;5014515;28;20046;-58
2022/06/28 02:21:42;;;;;;;11.55;8.95;;;13.10;99.90;;;;;;5014742;28;20421;-60
2022/06/28 02:24:09;;;;;;;15.70;9.60;;;13.10;99.90;;;;;;5007080;28;20088;-58
2022/06/28 02:26:36;;;;;;;23.98;9.18;;;13.00;99.90;;;;;;5014037;28;20049;-60
2022/06/28 02:29:03;;;;;;;13.15;9.43;;;13.00;99.90;;;;;;5009774;28;20817;-58
2022/06/28 02:31:30;;;;;;;15.20;8.82;;;13.00;99.90;;;;;;5014769;28;20060;-58
2022/06/28 02:33:57;;;;;;;13.35;9.27;;;13.00;99.90;;;;;;5013047;28;20473;-59
2022/06/28 02:41:44;;;;;;;12.45;9.73;;;13.00;99.90;;;;;;5012885;28;20048;-59
2022/06/28 02:44:10;;;;;;;16.15;9.38;;;13.00;99.90;;;;;;5009868;28;20045;-58
2022/06/28 02:46:36;;;;;;;16.40;9.57;;;13.00;99.90;;;;;;5012486;28;20503;-59
2022/06/28 02:49:02;;;;;;;14.05;9.40;;;13.00;99.90;;;;;;5014888;28;20064;-58
2022/06/28 02:51:28;;;;;;;20.40;10.02;;;12.90;99.90;;;;;;5011706;28;20045;-59
2022/06/28 02:53:54;;;;;;;12.75;9.25;;;12.90;99.90;;;;;;5002005;28;20034;-59
2022/06/28 02:56:20;;;;;;;15.00;9.00;;;12.90;99.90;;;;;;5000426;28;20058;-59
2022/06/28 02:58:46;;;;;;;15.63;9.05;;;12.90;99.90;;;;;;5009019;28;20044;-60
2022/06/28 03:01:13;;;;;;;13.18;8.70;;;12.90;99.90;;;;;;4999930;28;20077;-58
2022/06/28 03:03:39;;;;;;;18.13;9.23;;;12.90;99.90;;;;;;4994115;28;20503;-59
2022/06/28 03:06:05;;;;;;;12.75;8.85;;;12.90;99.90;;;;;;5014840;28;20049;-59
2022/06/28 03:08:32;;;;;;;15.23;9.05;;;12.90;99.90;;;;;;5014657;28;20128;-59
2022/06/28 03:10:58;;;;;;;14.98;9.10;;;12.80;99.90;;;;;;5014556;28;20052;-59
2022/06/28 03:13:23;;;;;;;12.52;9.27;;;12.80;99.90;;;;;;4981968;28;20053;-59
2022/06/28 03:15:49;;;;;;;14.48;9.65;;;12.80;99.90;;;;;;5010827;28;20507;-59
2022/06/28 03:18:15;;;;;;;16.25;9.70;;;12.80;99.90;;;;;;4993078;28;20594;-58
2022/06/28 03:20:41;;;;;;;12.93;9.40;;;12.80;99.90;;;;;;5001756;28;20037;-59
2022/06/28 03:23:07;;;;;;;14.07;10.00;;;12.80;99.90;;;;;;5005824;28;20060;-59
2022/06/28 03:25:33;;;;;;;14.75;9.68;;;12.80;99.90;;;;;;5008223;28;20046;-59
2022/06/28 03:27:59;;;;;;;15.35;9.60;;;12.70;99.90;;;;;;5029511;28;20138;-57
2022/06/28 03:30:25;;;;;;;16.42;9.52;;;12.70;99.90;;;;;;5011133;28;20609;-58
2022/06/28 03:32:51;;;;;;;14.68;9.50;;;12.70;99.90;;;;;;5001852;28;20403;-58
2022/06/28 03:35:17;;;;;;;12.80;9.38;;;12.70;99.90;;;;;;5000773;28;20041;-58
2022/06/28 03:37:43;;;;;;;14.10;9.70;;;12.70;99.90;;;;;;5010152;28;20065;-58
2022/06/28 03:40:09;;;;;;;14.80;9.90;;;12.70;99.90;;;;;;5009797;28;20060;-59
2022/06/28 03:42:36;;;;;;;17.00;9.70;;;12.70;99.90;;;;;;5003821;28;20046;-59
2022/06/28 03:45:02;;;;;;;16.52;9.55;;;12.70;99.90;;;;;;5002770;28;20073;-59
2022/06/28 03:47:28;;;;;;;18.08;9.65;;;12.70;99.90;;;;;;5010908;28;20050;-59
2022/06/28 03:49:54;;;;;;;14.65;9.82;;;12.70;99.90;;;;;;5008998;28;20049;-58
2022/06/28 03:52:28;;;;;;;14.68;9.13;;;12.70;99.90;;;;;;4996980;28;20700;-60
2022/06/28 03:54:58;;;;;;;15.68;9.43;;;12.70;99.90;;;;;;5008918;28;20081;-59
2022/06/28 03:57:25;;;;;;;14.32;8.88;;;12.70;99.90;;;;;;5008009;28;20045;-59
2022/06/28 03:59:52;;;;;;;13.60;9.77;;;12.70;99.90;;;;;;5017090;28;20124;-59
2022/06/28 04:02:18;;;;;;;18.85;9.18;;;12.70;99.90;;;;;;5020059;28;20246;-59
2022/06/28 04:04:44;;;;;;;13.20;9.52;;;12.70;99.90;;;;;;5014352;28;20184;-59
2022/06/28 04:07:10;;;;;;;15.07;9.30;;;12.80;99.90;;;;;;5014246;28;20072;-60
2022/06/28 04:09:36;;;;;;;12.35;9.32;;;12.80;99.90;;;;;;5010246;28;20080;-59
2022/06/28 04:12:02;;;;;;;14.05;8.95;;;12.80;99.90;;;;;;5018923;28;20077;-59
2022/06/28 04:14:28;;;;;;;16.75;9.43;;;12.80;99.90;;;;;;5015278;28;20049;-58
2022/06/28 04:16:54;;;;;;;13.40;8.65;;;12.80;99.90;;;;;;5017635;28;20530;-58
2022/06/28 04:19:19;;;;;;;15.20;9.60;;;12.80;99.90;;;;;;5015615;28;20053;-59
2022/06/28 04:21:45;;;;;;;15.05;8.98;;;12.80;99.90;;;;;;5018968;28;20051;-59
2022/06/28 04:24:11;;;;;;;17.55;9.90;;;12.80;99.90;;;;;;5010103;28;20052;-59
2022/06/28 04:26:37;;;;;;;16.58;9.50;;;12.80;99.90;;;;;;5015143;28;20095;-58
2022/06/28 04:29:02;;;;;;;17.40;8.90;;;12.80;99.90;;;;;;5014539;28;20041;-58
2022/06/28 04:31:28;;;;;;;14.63;9.07;;;12.90;99.90;;;;;;5016108;28;20076;-59
2022/06/28 04:33:54;;;;;;;12.02;8.32;;;12.90;99.90;;;;;;5013323;28;20053;-59
2022/06/28 04:36:20;;;;;;;15.82;9.13;;;13.00;99.90;;;;;;5018136;28;20045;-59
2022/06/28 04:38:46;;;;;;;16.77;8.73;;;13.00;99.90;;;;;;5015646;28;20053;-59
2022/06/28 04:41:12;;;;;;;15.75;8.30;;;13.00;99.90;;;;;;5019695;28;20033;-58
2022/06/28 04:43:37;;;;;;;16.67;8.48;;;13.00;99.90;;;;;;5016293;28;20037;-58
2022/06/28 04:46:03;;;;;;;18.70;8.57;;;13.10;99.90;;;;;;5017787;28;20057;-59
2022/06/28 04:48:29;;;;;;;15.38;8.40;;;13.10;99.90;;;;;;5013236;28;20056;-57
2022/06/28 04:50:55;;;;;;;12.80;8.55;;;13.10;99.90;;;;;;5019566;28;20112;-58
2022/06/28 04:53:21;;;;;;;14.55;8.45;;;13.20;99.90;;;;;;5014161;28;20049;-58
2022/06/28 04:55:47;;;;;;;14.25;8.50;;;13.20;99.90;;;;;;5015393;28;20045;-58
2022/06/28 04:58:12;;;;;;;14.98;8.38;;;13.20;99.90;;;;;;5016135;28;20484;-59
2022/06/28 05:00:38;;;;;;;9.95;7.82;;;13.20;99.90;;;;;;5019362;28;20045;-58
2022/06/28 05:03:04;;;;;;;12.35;7.97;;;13.20;99.90;;;;;;5017305;28;20582;-60
2022/06/28 05:05:30;;;;;;;15.75;8.48;;;13.30;99.90;;;;;;5021892;28;20091;-58
2022/06/28 05:07:56;;;;;;;13.07;7.68;;;13.30;99.90;;;;;;5010696;28;20508;-58
2022/06/28 05:10:22;;;;;;;17.30;8.07;;;13.40;99.90;;;;;;5010630;28;20060;-59
2022/06/28 05:12:47;;;;;;;14.65;7.63;;;13.40;99.90;;;;;;5009852;28;20053;-58
2022/06/28 05:15:13;;;;;;;13.05;7.80;;;13.40;99.90;;;;;;5032214;28;20049;-59
2022/06/28 05:17:40;;;;;;;15.35;7.32;;;13.50;99.90;;;;;;5007005;28;20512;-58
2022/06/28 05:20:07;;;;;;;13.27;7.55;;;13.50;99.90;;;;;;5013747;28;20042;-59
2022/06/28 05:22:33;;;;;;;13.40;7.60;;;13.60;99.90;;;;;;5017620;28;20081;-58
2022/06/28 05:24:59;;;;;;;16.60;7.85;;;13.60;99.90;;;;;;5013769;28;20145;-59
2022/06/28 05:27:25;;;;;;;15.60;7.35;;;13.70;99.90;;;;;;5016060;28;20085;-59
2022/06/28 05:29:50;;;;;;;15.30;6.95;;;13.80;99.90;;;;;;5012498;28;20049;-59
2022/06/28 05:32:16;;;;;;;16.83;7.20;;;13.80;99.90;;;;;;5002502;28;20109;-57
2022/06/28 05:34:42;;;;;;;13.93;7.43;;;13.80;99.90;;;;;;5018532;28;20499;-59
2022/06/28 05:37:09;;;;;;;11.98;6.75;;;13.90;99.90;;;;;;5013136;28;20046;-59
2022/06/28 05:39:34;;;;;;;12.45;7.03;;;14.00;99.90;;;;;;5009937;28;25783;-59
2022/06/28 05:42:00;;;;;;;15.15;7.03;;;14.00;99.90;;;;;;5008107;28;20141;-59
2022/06/28 05:44:26;;;;;;;10.23;6.53;;;14.10;99.90;;;;;;5002479;28;20038;-59
2022/06/28 05:46:52;;;;;;;10.68;6.55;;;14.10;99.90;;;;;;5009270;28;20136;-60
2022/06/28 05:49:18;;;;;;;13.27;6.95;;;14.20;99.90;;;;;;5016493;28;20510;-63
2022/06/28 05:51:44;;;;;;;15.10;6.78;;;14.20;99.90;;;;;;5012459;28;20033;-62
2022/06/28 05:54:10;;;;;;;20.27;7.53;;;14.30;99.90;;;;;;5013172;28;20056;-63
2022/06/28 05:56:36;;;;;;;11.35;6.63;;;14.40;99.90;;;;;;5016944;28;20510;-63
2022/06/28 05:59:04;;;;;;;14.23;6.43;;;14.40;99.90;;;;;;5008652;28;20056;-63
2022/06/28 06:01:30;;;;;;;12.80;6.15;;;14.50;99.90;;;;;;4980803;28;20479;-63
2022/06/28 06:03:57;;;;;;;10.82;5.85;;;14.60;99.90;;;;;;5013585;28;20050;-62
2022/06/28 06:06:24;;;;;;;10.93;5.90;;;14.60;99.90;;;;;;5018668;28;20061;-62
2022/06/28 06:08:51;;;;;;;10.93;5.38;;;14.70;99.90;;;;;;5008581;28;20053;-63
2022/06/28 06:11:17;;;;;;;10.48;6.25;;;14.80;99.90;;;;;;5015138;28;20084;-62
2022/06/28 06:13:43;;;;;;;12.75;6.95;;;14.90;99.90;;;;;;4992004;28;20492;-64
2022/06/28 06:16:09;;;;;;;11.35;6.57;;;14.90;99.90;;;;;;5014895;28;20092;-62
2022/06/28 06:18:35;;;;;;;17.88;6.07;;;15.00;99.90;;;;;;5022815;28;20507;-63
2022/06/28 06:21:01;;;;;;;11.68;6.60;;;15.10;99.90;;;;;;5016466;28;20122;-62
2022/06/28 06:23:27;;;;;;;12.65;6.68;;;15.20;99.90;;;;;;5023116;28;20052;-63
2022/06/28 06:25:52;;;;;;;10.45;6.47;;;15.30;99.90;;;;;;5021585;28;20052;-63
2022/06/28 06:28:18;;;;;;;12.23;6.68;;;15.30;99.90;;;;;;5018469;28;20472;-62
2022/06/28 06:30:44;;;;;;;11.98;6.45;;;15.40;99.90;;;;;;5014035;28;20061;-61
2022/06/28 06:33:10;;;;;;;12.25;6.72;;;15.50;99.90;;;;;;5016741;28;20046;-63
2022/06/28 06:35:36;;;;;;;11.65;6.63;;;15.50;99.90;;;;;;5018695;28;20664;-63
2022/06/28 06:38:02;;;;;;;14.82;6.32;;;15.60;99.90;;;;;;5013615;28;20053;-62
2022/06/28 06:40:29;;;;;;;12.55;6.40;;;15.70;99.90;;;;;;5017080;28;20554;-62
2022/06/28 06:42:55;;;;;;;12.95;5.65;;;15.80;99.90;;;;;;5010606;28;20049;-62
2022/06/28 06:45:21;;;;;;;15.05;6.20;;;15.90;99.90;;;;;;5018483;28;20045;-61
2022/06/28 06:47:47;;;;;;;12.02;6.30;;;15.90;99.90;;;;;;5021075;28;20120;-62
2022/06/28 06:50:13;;;;;;;16.98;5.72;;;16.10;99.90;;;;;;5013642;28;20041;-62
2022/06/28 06:52:39;;;;;;;13.75;4.95;;;16.10;99.90;;;;;;5011084;28;20050;-62
2022/06/28 06:55:06;;;;;;;7.80;4.40;;;16.20;99.90;;;;;;5020967;28;20045;-62
2022/06/28 06:57:32;;;;;;;10.68;4.72;;;16.30;99.90;;;;;;5016915;28;20076;-63
2022/06/28 06:59:58;;;;;;;10.80;4.20;;;16.40;99.90;;;;;;5011774;28;20315;-62
2022/06/28 07:02:24;;;;;;;12.38;4.97;;;16.40;99.90;;;;;;5012547;28;20057;-63
2022/06/28 07:04:50;;;;;;;12.35;4.20;;;16.50;99.90;;;;;;5010488;28;20103;-62
2022/06/28 07:07:16;;;;;;;11.45;4.13;;;16.60;99.90;;;;;;5020365;28;20061;-63
2022/06/28 07:09:41;;;;;;;10.75;3.92;;;16.70;99.90;;;;;;5018410;28;20056;-63
2022/06/28 07:12:07;;;;;;;11.43;3.25;;;16.80;99.90;;;;;;5015359;28;20888;-63
2022/06/28 07:14:33;;;;;;;11.63;3.50;;;16.90;99.90;;;;;;5009603;28;20049;-63
2022/06/28 07:16:59;;;;;;;14.70;3.92;;;17.10;99.90;;;;;;5005265;28;20057;-62
2022/06/28 07:19:25;;;;;;;11.27;3.60;;;17.10;99.90;;;;;;5012782;28;20045;-63
2022/06/28 07:21:50;;;;;;;12.05;3.70;;;17.10;99.90;;;;;;5014423;28;20052;-63
2022/06/28 07:24:17;;;;;;;14.32;3.30;;;17.20;99.90;;;;;;5000297;28;20046;-63
2022/06/28 07:26:44;;;;;;;9.68;3.47;;;17.40;99.90;;;;;;5017894;28;20566;-63
2022/06/28 07:29:10;;;;;;;13.88;3.60;;;17.50;99.90;;;;;;5009964;28;20497;-64
2022/06/28 07:31:36;;;;;;;8.88;3.20;;;17.60;99.90;;;;;;5015144;28;20179;-63
2022/06/28 07:34:02;;;;;;;10.75;3.30;;;17.70;99.90;;;;;;5017308;28;20045;-63
2022/06/28 07:36:29;;;;;;;12.93;3.30;;;17.80;99.90;;;;;;5019601;28;20046;-64
2022/06/28 07:38:55;;;;;;;10.55;3.50;;;17.90;99.90;;;;;;5005895;28;20041;-62
2022/06/28 07:41:23;;;;;;;10.48;2.75;;;18.00;99.90;;;;;;5026697;28;20460;-63
2022/06/28 07:43:51;;;;;;;15.48;3.30;;;18.00;99.90;;;;;;5014382;28;20052;-63
2022/06/28 07:46:18;;;;;;;16.52;3.40;;;18.10;99.90;;;;;;5027861;28;20057;-63
2022/06/28 07:48:44;;;;;;;7.65;2.53;;;18.20;99.90;;;;;;5020594;28;20045;-64
2022/06/28 07:53:56;;;;;;;10.25;2.45;;;18.40;99.90;;;;;;5017801;28;20081;-64
2022/06/28 07:56:22;;;;;;;12.23;2.45;;;18.50;99.90;;;;;;5023991;28;20037;-64
2022/06/28 07:58:48;;;;;;;7.82;2.47;;;18.60;99.90;;;;;;5001053;28;20412;-63
2022/06/28 08:01:13;;;;;;;6.95;2.40;;;18.60;99.90;;;;;;5022040;28;20124;-64
2022/06/28 08:03:39;;;;;;;8.23;2.30;;;18.70;99.90;;;;;;5021717;28;20764;-63
2022/06/28 08:06:05;;;;;;;7.15;2.30;;;18.70;99.90;;;;;;5025218;28;20076;-64
2022/06/28 08:08:31;;;;;;;9.82;2.30;;;18.80;99.90;;;;;;5014800;28;20045;-63
2022/06/28 08:10:57;;;;;;;9.70;2.80;;;18.80;99.90;;;;;;5026270;28;20407;-64
2022/06/28 08:13:23;;;;;;;7.75;2.47;;;18.90;99.90;;;;;;5017809;28;20091;-63
2022/06/28 08:15:49;;;;;;;9.32;3.03;;;19.00;99.90;;;;;;5010222;28;20510;-64
2022/06/28 08:18:15;;;;;;;5.90;1.92;;;19.20;99.90;;;;;;5022249;28;20048;-64
2022/06/28 08:20:41;;;;;;;8.57;1.67;;;19.30;99.90;;;;;;5012847;28;20040;-63
2022/06/28 08:23:07;;;;;;;7.72;2.17;;;19.30;99.90;;;;;;5017816;28;20049;-64
2022/06/28 08:25:33;;;;;;;7.30;1.73;;;19.10;99.90;;;;;;5014755;28;20129;-64
2022/06/28 08:27:59;;;;;;;5.75;1.70;;;19.10;99.90;;;;;;4996505;28;20045;-63
2022/06/28 08:30:28;;;;;;;12.75;2.55;;;19.20;99.90;;;;;;5023910;28;20492;-63
2022/06/28 08:32:55;;;;;;;7.43;2.38;;;19.30;99.90;;;;;;5020584;28;20057;-63
2022/06/28 08:35:21;;;;;;;7.28;1.52;;;19.50;99.90;;;;;;5023307;28;20352;-64
2022/06/28 08:37:47;;;;;;;5.93;1.50;;;19.60;99.90;;;;;;5025917;28;20048;-64
2022/06/28 08:40:13;;;;;;;7.20;1.90;;;19.80;99.90;;;;;;5023458;28;20038;-62
2022/06/28 08:42:47;;;;;;;9.45;1.40;;;19.90;99.90;;;;;;5020901;28;20052;-63
2022/06/28 08:45:13;;;;;;;6.10;1.40;;;20.10;99.90;;;;;;5016471;28;20102;-64
2022/06/28 08:47:41;;;;;;;9.45;1.30;;;20.20;99.90;;;;;;5023846;28;20055;-64
2022/06/28 08:50:19;;;;;;;5.95;1.27;;;20.20;99.90;;;;;;5018987;28;20059;-64
2022/06/28 08:52:47;;;;;;;6.63;1.50;;;20.20;99.90;;;;;;5016844;28;20175;-63
2022/06/28 08:55:13;;;;;;;6.55;1.40;;;20.30;99.90;;;;;;5020715;28;20396;-64
2022/06/28 08:57:41;;;;;;;4.80;1.33;;;20.40;99.90;;;;;;4991131;28;20049;-64
2022/06/28 09:00:09;;;;;;;4.80;1.35;;;20.60;99.90;;;;;;5018243;28;20180;-63
2022/06/28 09:02:35;;;;;;;7.82;1.40;;;20.60;99.90;;;;;;5022611;28;20391;-62
2022/06/28 09:05:01;;;;;;;6.32;1.65;;;20.70;99.90;;;;;;5022521;28;20134;-64
2022/06/28 09:07:28;;;;;;;7.25;1.55;;;20.70;99.90;;;;;;5017468;28;20049;-64
2022/06/28 09:09:54;;;;;;;11.23;1.80;;;20.70;99.20;;;;;;4992034;28;20052;-63
2022/06/28 09:12:21;;;;;;;6.07;1.33;;;20.80;98.60;;;;;;5023678;28;20061;-64
2022/06/28 09:14:47;;;;;;;5.50;1.50;;;20.80;98.20;;;;;;5016355;28;20048;-61
2022/06/28 09:17:33;;;;;;;6.95;1.58;;;20.80;98.50;;;;;;5018649;28;20046;-64
2022/06/28 09:20:05;;;;;;;8.38;1.50;;;21.00;98.50;;;;;;5020746;28;20061;-64
2022/06/28 09:22:40;;;;;;;10.40;1.50;;;21.20;98.00;;;;;;5023380;28;20128;-63
2022/06/28 09:25:10;;;;;;;5.07;1.40;;;21.40;98.10;;;;;;4999054;28;20060;-64
2022/06/28 09:27:39;;;;;;;5.47;1.60;;;21.60;98.10;;;;;;5013378;28;20042;-64
2022/06/28 09:30:08;;;;;;;5.97;1.77;;;21.90;97.40;;;;;;5021242;28;20127;-65
2022/06/28 09:32:36;;;;;;;10.40;1.63;;;21.80;96.60;;;;;;5015645;28;20046;-64
2022/06/28 09:35:04;;;;;;;7.40;1.48;;;21.70;96.60;;;;;;5014106;28;20068;-64
2022/06/28 09:37:48;;;;;;;6.93;1.50;;;21.60;96.40;;;;;;5015483;28;20099;-64
2022/06/28 09:40:24;;;;;;;5.50;1.05;;;21.60;96.20;;;;;;5021982;28;20121;-64
2022/06/28 09:43:11;;;;;;;6.57;1.20;;;21.50;95.60;;;;;;5019946;28;20056;-64
2022/06/28 09:45:39;;;;;;;6.60;1.52;;;21.50;95.50;;;;;;5019823;28;20072;-64
2022/06/28 09:48:06;;;;;;;8.30;1.40;;;21.60;95.30;;;;;;5016503;28;20056;-64
2022/06/28 09:50:35;;;;;;;7.10;1.60;;;21.80;95.30;;;;;;5004537;28;21144;-64
2022/06/28 09:53:03;;;;;;;9.68;1.55;;;21.90;95.10;;;;;;5021408;28;20543;-63
2022/06/28 09:55:32;;;;;;;10.77;1.52;;;22.00;94.40;;;;;;5010739;28;20480;-64
2022/06/28 09:57:59;;;;;;;7.57;1.52;;;22.20;93.70;;;;;;5018201;28;20064;-64
2022/06/28 10:00:26;;;;;;;4.03;1.40;;;22.30;92.50;;;;;;5022512;28;20468;-65
2022/06/28 10:02:57;;;;;;;7.97;2.28;;;22.50;91.20;;;;;;5017348;28;20053;-65
2022/06/28 10:05:24;;;;;;;6.60;1.60;;;22.60;91.60;;;;;;5026753;28;20049;-64
2022/06/28 10:07:50;;;;;;;5.70;1.50;;;22.60;92.00;;;;;;5022702;28;20045;-64
2022/06/28 10:10:16;;;;;;;7.45;1.92;;;22.60;91.50;;;;;;5009721;28;20147;-64
2022/06/28 10:15:33;;;;;;;4.72;1.48;;;23.00;91.50;;;;;;5022243;28;20045;-64
2022/06/28 10:18:09;;;;;;;5.40;1.30;;;23.10;90.80;;;;;;5001064;28;20038;-64
2022/06/28 10:20:37;;;;;;;6.65;1.77;;;23.30;90.80;;;;;;5011913;28;20063;-64
2022/06/28 10:23:25;;;;;;;5.38;1.80;;;23.50;90.80;;;;;;4994926;28;20415;-64
2022/06/28 10:26:16;;;;;;;7.72;1.63;;;23.60;88.10;;;;;;5010745;28;20046;-64
2022/06/28 10:28:42;;;;;;;4.90;1.40;;;23.60;86.30;;;;;;5018682;28;20041;-64
2022/06/28 10:31:31;;;;;;;6.70;1.70;;;23.70;86.30;;;;;;5015975;28;20116;-64
2022/06/28 10:34:02;;;;;;;5.53;1.58;;;23.80;85.50;;;;;;5021387;28;20042;-65
2022/06/28 10:36:50;;;;;;;6.22;1.63;;;23.80;81.20;;;;;;4997918;28;20415;-64
2022/06/28 10:39:23;;;;;;;6.88;1.65;;;23.90;81.70;;;;;;5023452;28;20053;-64
2022/06/28 10:41:50;;;;;;;8.00;1.70;;;24.10;79.30;;;;;;5024071;28;20541;-64
2022/06/28 10:44:18;;;;;;;6.60;1.77;;;24.10;80.10;;;;;;5017362;28;20049;-63
2022/06/28 10:47:05;;;;;;;6.88;1.58;;;24.30;77.90;;;;;;5014059;28;20147;-64
2022/06/28 10:49:46;;;;;;;5.32;1.65;;;24.40;77.80;;;;;;5015658;28;20081;-64
2022/06/28 10:52:17;;;;;;;9.02;1.45;;;24.60;78.70;;;;;;5025498;28;20186;-64
2022/06/28 10:55:06;;;;;;;7.25;1.60;;;24.70;77.70;;;;;;5019025;28;20146;-64
2022/06/28 10:57:37;;;;;;;10.55;1.85;;;24.60;75.90;;;;;;5018557;28;20041;-64
2022/06/28 11:00:07;;;;;;;5.00;1.48;;;24.30;76.40;;;;;;5024488;28;20049;-64
2022/06/28 11:02:51;;;;;;;7.60;1.65;;;24.10;76.90;;;;;;5016703;28;20049;-64
2022/06/28 11:05:23;;;;;;;6.30;1.27;;;23.80;75.90;;;;;;5019634;28;20060;-64
2022/06/28 11:08:01;;;;;;;4.18;1.55;;;23.50;75.80;;;;;;5019537;28;20387;-64
2022/06/28 11:10:28;;;;;;;11.75;1.70;;;23.30;76.20;;;;;;5010670;28;20046;-64
2022/06/28 11:13:18;;;;;;;5.88;1.65;;;23.40;76.80;;;;;;5006661;28;20049;-65
2022/06/28 11:15:44;;;;;;;8.20;1.70;;;23.70;78.00;;;;;;5017526;28;20091;-64
2022/06/28 11:18:30;;;;;;;9.27;1.63;;;24.00;77.50;;;;;;4983088;28;20479;-64
2022/06/28 11:20:56;;;;;;;6.07;1.60;;;24.30;77.40;;;;;;5014265;28;20040;-64
2022/06/28 11:23:23;;;;;;;6.60;2.20;;;24.50;76.60;;;;;;4991880;28;20057;-64
2022/06/28 11:28:52;;;;;;;6.70;1.90;;;24.30;74.30;;;;;;5009462;28;20094;-64
2022/06/28 11:31:18;;;;;;;11.00;1.98;;;24.40;75.00;;;;;;5021749;28;20968;-64
2022/06/28 11:33:44;;;;;;;5.28;1.60;;;24.70;79.00;;;;;;5008462;28;20984;-64
2022/06/28 11:36:32;;;;;;;5.35;1.70;;;24.90;76.70;;;;;;5017041;28;20088;-64
2022/06/28 11:39:20;;;;;;;6.88;1.50;;;25.10;74.10;;;;;;5014070;28;20488;-64
2022/06/28 11:41:55;;;;;;;7.03;1.90;;;25.40;76.10;;;;;;5010276;28;20062;-64
2022/06/28 11:44:22;;;;;;;7.25;1.45;;;25.60;76.30;;;;;;5019614;28;20080;-64
2022/06/28 11:46:50;;;;;;;6.90;1.58;;;25.60;72.70;;;;;;5008031;28;20045;-64
2022/06/28 11:49:49;;;;;;;3.95;1.40;;;25.20;70.80;;;;;;5011217;28;20056;-64
2022/06/28 11:52:16;;;;;;;6.18;1.83;;;25.00;70.70;;;;;;5017060;28;20045;-64
2022/06/28 11:54:52;;;;;;;6.30;1.67;;;24.80;71.50;;;;;;5008010;28;20052;-64
2022/06/28 11:57:18;;;;;;;9.05;1.50;;;24.90;71.70;;;;;;5015907;28;20048;-64
2022/06/28 11:59:53;;;;;;;5.93;1.70;;;25.00;71.60;;;;;;5021197;28;20041;-64
2022/06/28 12:02:44;;;;;;;4.82;1.42;;;25.20;70.30;;;;;;5018666;28;20084;-64
2022/06/28 12:05:10;;;;;;;6.78;1.70;;;25.30;69.90;;;;;;5011851;28;20045;-64
2022/06/28 12:07:43;;;;;;;5.03;1.33;;;25.10;69.50;;;;;;5017017;28;20071;-64
2022/06/28 12:10:20;;;;;;;5.22;1.60;;;24.80;68.80;;;;;;5012546;28;20045;-64
2022/06/28 12:12:46;;;;;;;10.15;1.98;;;25.00;68.60;;;;;;4994214;28;20041;-64
2022/06/28 12:15:12;;;;;;;6.72;1.50;;;25.30;67.80;;;;;;5018444;28;20045;-64
2022/06/28 12:17:45;;;;;;;5.65;1.60;;;25.60;67.00;;;;;;5015165;28;20045;-64
2022/06/28 12:20:12;;;;;;;5.05;1.20;;;25.80;67.80;;;;;;5006800;28;20050;-64
2022/06/28 12:22:38;;;;;;;4.47;1.40;;;26.00;65.60;;;;;;5009184;28;21065;-64
2022/06/28 12:25:13;;;;;;;5.57;1.33;;;26.20;64.30;;;;;;4976788;28;20054;-64
2022/06/28 12:27:39;;;;;;;4.43;1.63;;;26.20;63.40;;;;;;5024144;28;20417;-64
2022/06/28 12:30:07;;;;;;;5.93;1.83;;;26.10;62.90;;;;;;5020697;28;20108;-71
2022/06/28 12:32:33;;;;;;;5.32;1.50;;;26.10;62.90;;;;;;4996340;28;20582;-71
2022/06/28 12:35:05;;;;;;;7.15;1.50;;;25.90;62.90;;;;;;5000007;28;20050;-70
2022/06/28 12:37:32;;;;;;;5.22;1.75;;;25.60;62.00;;;;;;5017898;28;20069;-71
2022/06/28 12:39:59;;;;;;;10.23;1.83;;;25.60;62.90;;;;;;5025698;28;20518;-71
2022/06/28 12:42:27;;;;;;;5.82;1.30;;;25.80;64.50;;;;;;5024188;28;20162;-71
2022/06/28 12:44:54;;;;;;;8.73;1.52;;;26.00;64.90;;;;;;5003730;28;20044;-70
2022/06/28 12:47:20;;;;;;;5.20;1.50;;;26.20;65.10;;;;;;4995146;28;20529;-70
2022/06/28 12:49:46;;;;;;;6.80;1.60;;;26.50;64.20;;;;;;5002897;28;20041;-70
2022/06/28 12:52:12;;;;;;;5.40;1.15;;;26.70;62.60;;;;;;4987636;28;20057;-71
2022/06/28 12:54:37;;;;;;;5.47;1.67;;;26.70;62.10;;;;;;5006759;28;20045;-71
2022/06/28 12:57:04;;;;;;;7.80;1.65;;;26.60;61.90;;;;;;4967578;28;20057;-70
2022/06/28 12:59:29;;;;;;;8.65;1.75;;;26.40;62.70;;;;;;5008224;28;20052;-70